Flight Track Log - Related Links

Times and Time Zones

All times are in EDT time to prevent confusion due to time zone crossing. See the SWA1040 flight status page for this flight to view local times or setup timezone preferences in your user account.

Time Position Orientation Groundspeed Altitude Reporting Facility
EDT Latitude Longitude Course Direction KTS MPH feet Rate Location/Type
Sat 12:29:04 PM 42.8497 -73.8844 326° Northwest 219 252 7,700  Level Boston Center
Sat 12:30:04 PM 42.8908 -73.9392 316° Northwest 218 251 10,700 3,100 Climbing Boston Center
Sat 12:31:04 PM 42.8603 -74.0375 247° West 224 258 13,900 3,250 Climbing Boston Center
Sat 12:32:04 PM 42.7764 -74.0694 196° South 236 272 17,200 2,900 Climbing Boston Center
Sat 12:33:04 PM 42.6853 -74.0217 159° South 270 311 19,700 3,000 Climbing Boston Center
Sat 12:34:04 PM 42.5714 -73.9681 161° South 325 374 23,200 3,200 Climbing Boston Center
Sat 12:35:04 PM 42.4617 -73.9261 164° South 373 429 26,100 2,150 Climbing Boston Center
Sat 12:36:04 PM 42.3486 -73.9569 191° South 392 451 27,500 864 Climbing Boston Center
Sat 12:37:16 PM 42.2336 -73.9908 192° South 413 475 28,000 227 Climbing Boston Center
Sat 12:38:16 PM 42.0975 -74.0322 193° South 436 502 28,000  Level Boston Center
Sat 12:39:53 PM 41.8894 -74.0894 192° South 496 571 28,000  Level New York Center
Sat 12:40:53 PM 41.7594 -74.1275 192° South 491 565 28,000  Level New York Center
Sat 12:41:54 PM 41.6272 -74.1653 192° South 486 559 28,000  Level New York Center
Sat 12:42:54 PM 41.4844 -74.2078 193° South 486 559 28,000  Level New York Center
Sat 12:43:52 PM 41.3564 -74.2425 192° South 486 559 28,000  Level New York Center
Sat 12:44:54 PM 41.2219 -74.2769 191° South 486 559 28,000  Level New York Center
Sat 12:45:52 PM 41.0917 -74.3144 192° South 486 559 28,000  Level New York Center
Sat 12:46:52 PM 40.9614 -74.3514 192° South 486 559 28,000  Level New York Center
Sat 12:47:53 PM 40.8333 -74.3886 192° South 486 559 28,000  Level New York Center
Sat 12:48:53 PM 40.7322 -74.4900 217° Southwest 453 521 28,000  Level New York Center
Sat 12:49:54 PM 40.6550 -74.6197 232° Southwest 444 511 28,000 -496 Level New York Center
Sat 12:50:54 PM 40.5758 -74.7492 231° Southwest 454 522 27,000 -1,068 Descending New York Center
Sat 12:51:52 PM 40.5033 -74.8569 229° Southwest 462 532 25,900 -1,729 Descending New York Center
Sat 12:52:52 PM 40.4244 -74.9667 227° Southwest 443 510 23,600 -1,934 Descending New York Center
Sat 12:53:53 PM 40.3497 -75.0767 228° Southwest 424 488 22,000 -1,328 Descending New York Center
Sat 12:54:54 PM 40.2772 -75.1756 226° Southwest 405 466 20,900 -1,033 Descending New York Center
Sat 12:55:55 PM 40.2047 -75.2769 227° Southwest 392 451 19,900 -1,400 Descending New York Center
Sat 12:56:54 PM 40.1342 -75.3728 226° Southwest 380 437 18,100 -950 Descending New York Center
Sat 12:57:55 PM 40.0572 -75.4761 226° Southwest 365 420 18,000 -50 Descending New York Center
Sat 12:58:53 PM 39.9975 -75.5617 228° Southwest 358 412 18,000 -202 Level New York Center
Sat 12:59:54 PM 39.9225 -75.6619 226° Southwest 358 412 17,600 -706 Descending New York Center
Sat 01:00:52 PM 39.8681 -75.7664 236° Southwest 358 412 16,600 -1,017 Descending New York Center
Sat 01:01:52 PM 39.8158 -75.8681 236° Southwest 352 405 15,600 -1,534 Descending New York Center
Sat 01:03:48 PM 39.7167 -76.0667 237° Southwest 332 382 12,100 -1,227 Descending Potomac TRACON
Sat 01:04:48 PM 39.6500 -76.1500 224° Southwest 315 362 12,000 -400 Descending Potomac TRACON
Sat 01:05:48 PM 39.5833 -76.2167 218° Southwest 298 343 11,300 -843 Descending Potomac TRACON
Sat 01:06:49 PM 39.5333 -76.2833 226° Southwest 298 343 10,300 -1,190 Descending Potomac TRACON
Sat 01:07:49 PM 39.4667 -76.3500 218° Southwest 296 341 8,900 -1,526 Descending Potomac TRACON
Sat 01:08:43 PM 39.4000 -76.4167 218° Southwest 295 339 7,400 -1,579 Descending Potomac TRACON
Sat 01:09:43 PM 39.3167 -76.4167 180° South 291 335 5,900 -1,350 Descending Potomac TRACON
Sat 01:10:43 PM 39.2500 -76.4167 180° South 271 312 4,700 -942 Descending Potomac TRACON
Sat 01:11:44 PM 39.1667 -76.4167 180° South 248 285 4,000 -347 Descending Potomac TRACON
Sat 01:12:44 PM 39.1167 -76.4167 180° South 225 259 4,000  Level Potomac TRACON
Sat 01:13:44 PM 39.0500 -76.4333 191° South 228 262 4,000 -53 Level Potomac TRACON
Sat 01:14:38 PM 39.0333 -76.4833 247° West 227 261 3,900 -574 Descending Potomac TRACON
Sat 01:15:39 PM 39.0500 -76.5667 284° West 229 264 2,900 -1,091 Descending Potomac TRACON
Sat 01:16:39 PM 39.1000 -76.6000 333° Northwest 190 219 1,700 -992 Descending Potomac TRACON
Sat 01:17:40 PM 39.1333 -76.6333 322° Northwest 147 169 900 -787 Descending Potomac TRACON
Sat 01:19:00 PM 39.1667 -76.6667 270° West  Level FlightAware Approximate
Sat 01:26:00 PM 39.1754 -76.6683 270° West  Level Estimated

Login

Don't have an account? Register now (free) for customized features, flight alerts, and more!